sensor_id;sensor_type;location;lat;lon;timestamp;temperature;humidity
796;DHT22;381;48.770;9.188;2024-03-23T00:56:03;12.00;95.00
796;DHT22;381;48.770;9.188;2024-03-23T01:01:06;12.00;94.90
796;DHT22;381;48.770;9.188;2024-03-23T01:06:08;12.00;95.20
796;DHT22;381;48.770;9.188;2024-03-23T01:11:12;12.10;95.20
796;DHT22;381;48.770;9.188;2024-03-23T01:16:14;12.10;95.40
796;DHT22;381;48.770;9.188;2024-03-23T01:21:16;12.20;95.00
796;DHT22;381;48.770;9.188;2024-03-23T01:26:20;12.30;94.90
796;DHT22;381;48.770;9.188;2024-03-23T01:31:23;12.40;94.70
796;DHT22;381;48.770;9.188;2024-03-23T01:36:25;12.50;94.20
796;DHT22;381;48.770;9.188;2024-03-23T01:41:29;12.70;94.10
796;DHT22;381;48.770;9.188;2024-03-23T01:46:32;12.90;93.90
796;DHT22;381;48.770;9.188;2024-03-23T01:51:34;13.10;93.80
796;DHT22;381;48.770;9.188;2024-03-23T01:56:38;13.10;93.30
796;DHT22;381;48.770;9.188;2024-03-23T02:01:41;13.20;93.40
796;DHT22;381;48.770;9.188;2024-03-23T02:06:43;13.40;93.40
796;DHT22;381;48.770;9.188;2024-03-23T02:11:47;13.40;93.60
796;DHT22;381;48.770;9.188;2024-03-23T02:16:49;13.40;93.40
796;DHT22;381;48.770;9.188;2024-03-23T02:21:51;13.40;93.60
796;DHT22;381;48.770;9.188;2024-03-23T02:26:55;13.40;94.10
796;DHT22;381;48.770;9.188;2024-03-23T02:31:57;13.30;94.00
796;DHT22;381;48.770;9.188;2024-03-23T02:37:00;13.30;94.00
796;DHT22;381;48.770;9.188;2024-03-23T02:42:04;13.30;94.30
796;DHT22;381;48.770;9.188;2024-03-23T02:47:07;13.30;94.30
796;DHT22;381;48.770;9.188;2024-03-23T02:52:09;13.30;94.10
796;DHT22;381;48.770;9.188;2024-03-23T02:57:13;13.30;94.20
796;DHT22;381;48.770;9.188;2024-03-23T03:02:15;13.30;94.20
796;DHT22;381;48.770;9.188;2024-03-23T03:07:18;13.30;94.20
796;DHT22;381;48.770;9.188;2024-03-23T03:12:22;13.30;94.40
796;DHT22;381;48.770;9.188;2024-03-23T03:17:24;13.30;94.90
796;DHT22;381;48.770;9.188;2024-03-23T03:22:26;13.30;94.70
796;DHT22;381;48.770;9.188;2024-03-23T03:27:30;13.30;94.70
796;DHT22;381;48.770;9.188;2024-03-23T03:32:33;13.30;94.80
796;DHT22;381;48.770;9.188;2024-03-23T03:37:35;13.30;94.50
796;DHT22;381;48.770;9.188;2024-03-23T03:42:39;13.30;94.60
796;DHT22;381;48.770;9.188;2024-03-23T03:47:41;13.40;94.90
796;DHT22;381;48.770;9.188;2024-03-23T03:52:44;13.40;95.10
796;DHT22;381;48.770;9.188;2024-03-23T03:57:47;13.40;94.80
796;DHT22;381;48.770;9.188;2024-03-23T04:02:49;13.40;94.50
796;DHT22;381;48.770;9.188;2024-03-23T04:07:52;13.30;94.40
796;DHT22;381;48.770;9.188;2024-03-23T04:12:56;13.20;94.40
796;DHT22;381;48.770;9.188;2024-03-23T04:17:58;13.10;94.70
796;DHT22;381;48.770;9.188;2024-03-23T04:23:01;13.00;94.80
796;DHT22;381;48.770;9.188;2024-03-23T04:28:05;13.00;95.00
796;DHT22;381;48.770;9.188;2024-03-23T04:33:07;13.00;95.20
796;DHT22;381;48.770;9.188;2024-03-23T04:38:10;13.00;95.90
796;DHT22;381;48.770;9.188;2024-03-23T04:43:13;13.10;95.40
796;DHT22;381;48.770;9.188;2024-03-23T04:48:16;13.20;95.60
796;DHT22;381;48.770;9.188;2024-03-23T04:53:18;13.30;95.80
796;DHT22;381;48.770;9.188;2024-03-23T04:58:22;13.30;96.60
796;DHT22;381;48.770;9.188;2024-03-23T05:03:24;13.40;97.40
796;DHT22;381;48.770;9.188;2024-03-23T05:08:27;13.30;97.90
796;DHT22;381;48.770;9.188;2024-03-23T05:13:31;13.20;99.00
796;DHT22;381;48.770;9.188;2024-03-23T05:18:33;13.00;99.90
796;DHT22;381;48.770;9.188;2024-03-23T05:23:36;12.90;99.90
796;DHT22;381;48.770;9.188;2024-03-23T05:28:40;12.70;99.90
796;DHT22;381;48.770;9.188;2024-03-23T05:33:43;12.60;99.90
796;DHT22;381;48.770;9.188;2024-03-23T05:38:46;12.50;99.90
796;DHT22;381;48.770;9.188;2024-03-23T05:43:50;12.40;99.90
796;DHT22;381;48.770;9.188;2024-03-23T05:48:52;12.20;99.90
796;DHT22;381;48.770;9.188;2024-03-23T05:54:01;12.10;99.90
796;DHT22;381;48.770;9.188;2024-03-23T05:59:05;12.10;99.90
796;DHT22;381;48.770;9.188;2024-03-23T06:04:07;12.00;99.90
796;DHT22;381;48.770;9.188;2024-03-23T06:09:10;11.90;99.90
796;DHT22;381;48.770;9.188;2024-03-23T06:14:13;11.80;99.90
796;DHT22;381;48.770;9.188;2024-03-23T06:19:16;11.70;99.90
796;DHT22;381;48.770;9.188;2024-03-23T06:24:18;11.60;99.90
796;DHT22;381;48.770;9.188;2024-03-23T06:29:22;11.50;99.90
796;DHT22;381;48.770;9.188;2024-03-23T06:34:24;11.40;99.90
796;DHT22;381;48.770;9.188;2024-03-23T06:39:26;11.30;99.90
796;DHT22;381;48.770;9.188;2024-03-23T06:44:30;11.30;99.90
796;DHT22;381;48.770;9.188;2024-03-23T06:49:33;11.20;99.90
796;DHT22;381;48.770;9.188;2024-03-23T06:54:35;11.30;99.90
796;DHT22;381;48.770;9.188;2024-03-23T06:59:39;11.40;99.90
796;DHT22;381;48.770;9.188;2024-03-23T07:04:41;11.40;99.90
796;DHT22;381;48.770;9.188;2024-03-23T07:09:43;11.50;99.60
796;DHT22;381;48.770;9.188;2024-03-23T07:14:47;11.60;99.60
796;DHT22;381;48.770;9.188;2024-03-23T07:19:49;11.70;99.60
796;DHT22;381;48.770;9.188;2024-03-23T07:24:52;11.80;99.10
796;DHT22;381;48.770;9.188;2024-03-23T07:29:55;11.70;98.70
796;DHT22;381;48.770;9.188;2024-03-23T07:34:58;11.80;98.50
796;DHT22;381;48.770;9.188;2024-03-23T07:40:00;12.00;98.30
796;DHT22;381;48.770;9.188;2024-03-23T07:45:04;12.20;97.90
796;DHT22;381;48.770;9.188;2024-03-23T07:50:08;12.20;98.20
796;DHT22;381;48.770;9.188;2024-03-23T07:55:10;12.20;98.00
796;DHT22;381;48.770;9.188;2024-03-23T08:00:15;12.10;98.10
796;DHT22;381;48.770;9.188;2024-03-23T08:05:17;11.90;98.90
796;DHT22;381;48.770;9.188;2024-03-23T08:10:20;11.70;99.10
796;DHT22;381;48.770;9.188;2024-03-23T08:15:23;11.40;99.40
796;DHT22;381;48.770;9.188;2024-03-23T08:20:26;11.30;99.40
796;DHT22;381;48.770;9.188;2024-03-23T08:25:31;11.10;99.70
796;DHT22;381;48.770;9.188;2024-03-23T08:30:35;11.20;99.90
796;DHT22;381;48.770;9.188;2024-03-23T08:35:38;11.40;99.20
796;DHT22;381;48.770;9.188;2024-03-23T08:40:41;11.40;99.60
796;DHT22;381;48.770;9.188;2024-03-23T08:45:45;11.50;98.90
796;DHT22;381;48.770;9.188;2024-03-23T08:50:49;11.40;99.20
796;DHT22;381;48.770;9.188;2024-03-23T08:56:00;11.50;99.70
796;DHT22;381;48.770;9.188;2024-03-23T09:01:07;11.60;99.20
796;DHT22;381;48.770;9.188;2024-03-23T09:06:11;11.80;99.20
796;DHT22;381;48.770;9.188;2024-03-23T09:11:13;12.00;98.40
796;DHT22;381;48.770;9.188;2024-03-23T09:16:17;12.00;96.10
796;DHT22;381;48.770;9.188;2024-03-23T09:21:20;11.90;96.80
796;DHT22;381;48.770;9.188;2024-03-23T09:26:22;11.90;96.30
796;DHT22;381;48.770;9.188;2024-03-23T09:31:26;11.90;95.00
796;DHT22;381;48.770;9.188;2024-03-23T09:36:28;11.90;93.90
796;DHT22;381;48.770;9.188;2024-03-23T09:41:30;12.00;93.80
796;DHT22;381;48.770;9.188;2024-03-23T09:46:34;12.10;93.10
796;DHT22;381;48.770;9.188;2024-03-23T09:51:37;12.30;92.60
796;DHT22;381;48.770;9.188;2024-03-23T09:56:39;12.60;91.60
796;DHT22;381;48.770;9.188;2024-03-23T10:01:43;12.70;90.60
796;DHT22;381;48.770;9.188;2024-03-23T10:06:46;12.80;90.70
796;DHT22;381;48.770;9.188;2024-03-23T10:11:48;13.00;87.30
796;DHT22;381;48.770;9.188;2024-03-23T10:16:52;13.10;89.20
796;DHT22;381;48.770;9.188;2024-03-23T10:21:56;13.10;87.10
796;DHT22;381;48.770;9.188;2024-03-23T10:26:58;13.00;88.20
796;DHT22;381;48.770;9.188;2024-03-23T10:32:12;13.00;87.00
796;DHT22;381;48.770;9.188;2024-03-23T10:37:15;12.90;88.70
796;DHT22;381;48.770;9.188;2024-03-23T10:42:17;13.00;88.80
796;DHT22;381;48.770;9.188;2024-03-23T10:47:22;12.90;86.10
796;DHT22;381;48.770;9.188;2024-03-23T10:52:24;12.80;88.10
796;DHT22;381;48.770;9.188;2024-03-23T10:57:31;12.70;90.50
796;DHT22;381;48.770;9.188;2024-03-23T11:02:38;12.40;90.70
796;DHT22;381;48.770;9.188;2024-03-23T11:07:50;11.90;93.00
796;DHT22;381;48.770;9.188;2024-03-23T11:12:53;11.40;94.20
796;DHT22;381;48.770;9.188;2024-03-23T11:18:06;10.80;95.00
796;DHT22;381;48.770;9.188;2024-03-23T11:23:27;10.50;96.50
796;DHT22;381;48.770;9.188;2024-03-23T11:28:30;10.60;97.80
796;DHT22;381;48.770;9.188;2024-03-23T11:33:34;10.60;97.70
796;DHT22;381;48.770;9.188;2024-03-23T11:38:37;10.70;98.00
796;DHT22;381;48.770;9.188;2024-03-23T11:43:39;10.70;98.40
796;DHT22;381;48.770;9.188;2024-03-23T11:48:49;10.90;98.50
796;DHT22;381;48.770;9.188;2024-03-23T11:53:52;11.10;96.80
796;DHT22;381;48.770;9.188;2024-03-23T11:58:54;11.30;97.00
796;DHT22;381;48.770;9.188;2024-03-23T12:03:58;11.60;96.50
796;DHT22;381;48.770;9.188;2024-03-23T12:09:05;12.00;95.90
796;DHT22;381;48.770;9.188;2024-03-23T12:14:08;12.20;93.00
796;DHT22;381;48.770;9.188;2024-03-23T12:19:12;12.20;92.70
796;DHT22;381;48.770;9.188;2024-03-23T12:24:14;12.30;91.20
796;DHT22;381;48.770;9.188;2024-03-23T12:29:17;12.40;89.40
796;DHT22;381;48.770;9.188;2024-03-23T12:34:21;12.40;91.20
796;DHT22;381;48.770;9.188;2024-03-23T12:39:23;12.50;90.00
796;DHT22;381;48.770;9.188;2024-03-23T12:44:26;12.50;89.20
796;DHT22;381;48.770;9.188;2024-03-23T12:49:29;12.50;89.40
796;DHT22;381;48.770;9.188;2024-03-23T12:54:32;12.60;89.60
796;DHT22;381;48.770;9.188;2024-03-23T12:59:35;12.60;88.00
796;DHT22;381;48.770;9.188;2024-03-23T13:04:39;12.40;88.60
796;DHT22;381;48.770;9.188;2024-03-23T13:09:41;12.40;86.80
796;DHT22;381;48.770;9.188;2024-03-23T13:14:44;12.20;88.40
796;DHT22;381;48.770;9.188;2024-03-23T13:19:48;12.10;89.20
796;DHT22;381;48.770;9.188;2024-03-23T13:24:50;12.00;88.60
796;DHT22;381;48.770;9.188;2024-03-23T13:29:52;12.00;88.30
796;DHT22;381;48.770;9.188;2024-03-23T13:34:56;12.00;88.40
796;DHT22;381;48.770;9.188;2024-03-23T13:39:58;12.00;84.20
796;DHT22;381;48.770;9.188;2024-03-23T13:45:01;12.10;86.00
796;DHT22;381;48.770;9.188;2024-03-23T13:50:06;12.10;83.40
796;DHT22;381;48.770;9.188;2024-03-23T13:55:09;12.20;78.80
796;DHT22;381;48.770;9.188;2024-03-23T14:00:14;12.10;80.50
796;DHT22;381;48.770;9.188;2024-03-23T14:05:18;12.00;79.20
796;DHT22;381;48.770;9.188;2024-03-23T14:10:20;12.00;80.20
796;DHT22;381;48.770;9.188;2024-03-23T14:15:23;12.10;82.00
796;DHT22;381;48.770;9.188;2024-03-23T14:20:26;12.00;90.10
796;DHT22;381;48.770;9.188;2024-03-23T14:25:29;11.60;91.40
796;DHT22;381;48.770;9.188;2024-03-23T14:30:31;11.10;93.20
796;DHT22;381;48.770;9.188;2024-03-23T14:35:35;10.80;94.50
796;DHT22;381;48.770;9.188;2024-03-23T14:40:37;10.60;95.10
796;DHT22;381;48.770;9.188;2024-03-23T14:51:07;10.00;96.60
796;DHT22;381;48.770;9.188;2024-03-23T14:56:10;9.80;96.60
796;DHT22;381;48.770;9.188;2024-03-23T15:01:14;9.70;96.70
796;DHT22;381;48.770;9.188;2024-03-23T15:06:18;9.70;96.50
796;DHT22;381;48.770;9.188;2024-03-23T15:11:20;9.80;95.80
796;DHT22;381;48.770;9.188;2024-03-23T15:16:22;10.00;95.10
796;DHT22;381;48.770;9.188;2024-03-23T15:21:26;10.20;95.20
796;DHT22;381;48.770;9.188;2024-03-23T15:26:28;10.20;94.80
796;DHT22;381;48.770;9.188;2024-03-23T15:31:32;10.20;94.30
796;DHT22;381;48.770;9.188;2024-03-23T15:36:35;10.20;94.80
796;DHT22;381;48.770;9.188;2024-03-23T15:41:39;10.30;94.20
796;DHT22;381;48.770;9.188;2024-03-23T15:46:41;10.40;93.70
796;DHT22;381;48.770;9.188;2024-03-23T15:51:45;10.40;93.50
796;DHT22;381;48.770;9.188;2024-03-23T15:56:47;10.60;93.50
796;DHT22;381;48.770;9.188;2024-03-23T16:01:50;10.60;93.00
796;DHT22;381;48.770;9.188;2024-03-23T16:06:53;10.60;92.90
796;DHT22;381;48.770;9.188;2024-03-23T16:11:56;10.70;92.90
796;DHT22;381;48.770;9.188;2024-03-23T16:16:58;10.70;93.10
796;DHT22;381;48.770;9.188;2024-03-23T16:22:02;10.70;91.10
796;DHT22;381;48.770;9.188;2024-03-23T16:27:04;10.60;91.00
796;DHT22;381;48.770;9.188;2024-03-23T16:32:06;10.40;91.20
796;DHT22;381;48.770;9.188;2024-03-23T16:37:10;10.40;90.00
796;DHT22;381;48.770;9.188;2024-03-23T16:42:12;10.20;91.20
796;DHT22;381;48.770;9.188;2024-03-23T16:47:15;10.10;90.80
796;DHT22;381;48.770;9.188;2024-03-23T16:52:19;10.20;91.20
796;DHT22;381;48.770;9.188;2024-03-23T16:57:21;10.20;92.10
796;DHT22;381;48.770;9.188;2024-03-23T17:02:24;10.10;94.00
796;DHT22;381;48.770;9.188;2024-03-23T17:07:27;9.80;94.60
796;DHT22;381;48.770;9.188;2024-03-23T17:12:30;9.60;95.90
796;DHT22;381;48.770;9.188;2024-03-23T17:17:32;9.50;95.90
796;DHT22;381;48.770;9.188;2024-03-23T17:22:36;9.40;95.60
796;DHT22;381;48.770;9.188;2024-03-23T17:27:38;9.40;95.60
796;DHT22;381;48.770;9.188;2024-03-23T17:32:41;9.40;95.50
796;DHT22;381;48.770;9.188;2024-03-23T17:37:45;9.40;95.40
796;DHT22;381;48.770;9.188;2024-03-23T17:42:47;9.50;95.80
796;DHT22;381;48.770;9.188;2024-03-23T17:47:50;9.60;95.40
796;DHT22;381;48.770;9.188;2024-03-23T17:52:54;9.50;95.60
796;DHT22;381;48.770;9.188;2024-03-23T17:57:56;9.00;96.40
796;DHT22;381;48.770;9.188;2024-03-23T18:03:00;8.50;97.30
796;DHT22;381;48.770;9.188;2024-03-23T18:08:05;8.10;98.10
796;DHT22;381;48.770;9.188;2024-03-23T18:13:09;7.80;98.80
796;DHT22;381;48.770;9.188;2024-03-23T18:18:11;7.60;99.70
796;DHT22;381;48.770;9.188;2024-03-23T18:23:15;7.60;99.90
796;DHT22;381;48.770;9.188;2024-03-23T18:28:18;7.50;99.90
796;DHT22;381;48.770;9.188;2024-03-23T18:33:21;7.50;99.90
796;DHT22;381;48.770;9.188;2024-03-23T18:38:25;7.30;99.90
796;DHT22;381;48.770;9.188;2024-03-23T18:43:27;7.10;99.90
796;DHT22;381;48.770;9.188;2024-03-23T18:48:30;7.00;99.90
796;DHT22;381;48.770;9.188;2024-03-23T18:53:33;6.90;99.90
796;DHT22;381;48.770;9.188;2024-03-23T18:58:36;6.90;99.90
796;DHT22;381;48.770;9.188;2024-03-23T19:03:38;6.90;99.90
796;DHT22;381;48.770;9.188;2024-03-23T19:08:42;6.90;99.90
796;DHT22;381;48.770;9.188;2024-03-23T19:13:44;6.90;99.90
796;DHT22;381;48.770;9.188;2024-03-23T19:18:47;7.00;99.90
796;DHT22;381;48.770;9.188;2024-03-23T19:23:52;7.00;99.90
796;DHT22;381;48.770;9.188;2024-03-23T19:28:54;7.10;99.90
796;DHT22;381;48.770;9.188;2024-03-23T19:33:56;7.10;99.90
796;DHT22;381;48.770;9.188;2024-03-23T19:39:00;7.10;99.90
796;DHT22;381;48.770;9.188;2024-03-23T19:44:02;7.10;99.90
796;DHT22;381;48.770;9.188;2024-03-23T19:49:05;7.10;99.90
796;DHT22;381;48.770;9.188;2024-03-23T19:54:08;6.90;99.90
796;DHT22;381;48.770;9.188;2024-03-23T19:59:12;6.80;99.90
796;DHT22;381;48.770;9.188;2024-03-23T20:04:14;6.80;99.90
796;DHT22;381;48.770;9.188;2024-03-23T20:09:18;6.80;99.90
796;DHT22;381;48.770;9.188;2024-03-23T20:14:20;6.90;99.90
796;DHT22;381;48.770;9.188;2024-03-23T20:19:23;7.00;99.90
796;DHT22;381;48.770;9.188;2024-03-23T20:24:26;7.00;99.90
796;DHT22;381;48.770;9.188;2024-03-23T20:29:29;7.00;99.90
796;DHT22;381;48.770;9.188;2024-03-23T20:34:31;7.10;99.90
796;DHT22;381;48.770;9.188;2024-03-23T20:39:35;7.10;99.90
796;DHT22;381;48.770;9.188;2024-03-23T20:44:37;7.10;99.90
796;DHT22;381;48.770;9.188;2024-03-23T20:49:40;7.20;99.90
796;DHT22;381;48.770;9.188;2024-03-23T20:54:44;7.20;99.90
796;DHT22;381;48.770;9.188;2024-03-23T20:59:46;7.20;99.90
796;DHT22;381;48.770;9.188;2024-03-23T21:04:49;7.20;99.90
796;DHT22;381;48.770;9.188;2024-03-23T21:09:52;7.20;99.70
796;DHT22;381;48.770;9.188;2024-03-23T21:14:55;7.20;99.30
796;DHT22;381;48.770;9.188;2024-03-23T21:19:57;7.10;99.20
796;DHT22;381;48.770;9.188;2024-03-23T21:25:01;7.10;99.00
796;DHT22;381;48.770;9.188;2024-03-23T21:30:05;7.10;99.20
796;DHT22;381;48.770;9.188;2024-03-23T21:35:08;7.20;98.80
796;DHT22;381;48.770;9.188;2024-03-23T21:40:11;7.30;98.90
796;DHT22;381;48.770;9.188;2024-03-23T21:45:14;7.30;98.00
796;DHT22;381;48.770;9.188;2024-03-23T21:50:16;7.30;97.70
796;DHT22;381;48.770;9.188;2024-03-23T21:55:20;7.30;97.60
796;DHT22;381;48.770;9.188;2024-03-23T22:00:22;7.30;97.20
796;DHT22;381;48.770;9.188;2024-03-23T22:05:25;7.30;97.30
796;DHT22;381;48.770;9.188;2024-03-23T22:10:30;7.20;97.40
796;DHT22;381;48.770;9.188;2024-03-23T22:15:32;7.20;97.50
796;DHT22;381;48.770;9.188;2024-03-23T22:20:36;7.20;97.30
796;DHT22;381;48.770;9.188;2024-03-23T22:25:47;7.10;97.20
796;DHT22;381;48.770;9.188;2024-03-23T22:30:56;7.10;97.70
796;DHT22;381;48.770;9.188;2024-03-23T22:35:59;7.00;97.80
796;DHT22;381;48.770;9.188;2024-03-23T22:41:03;7.00;97.70
796;DHT22;381;48.770;9.188;2024-03-23T22:46:06;7.00;97.40
796;DHT22;381;48.770;9.188;2024-03-23T22:51:12;7.00;97.20
796;DHT22;381;48.770;9.188;2024-03-23T22:56:16;7.00;97.10
796;DHT22;381;48.770;9.188;2024-03-23T23:01:19;6.90;97.20
796;DHT22;381;48.770;9.188;2024-03-23T23:06:22;7.00;97.40
796;DHT22;381;48.770;9.188;2024-03-23T23:11:25;7.00;97.30
796;DHT22;381;48.770;9.188;2024-03-23T23:16:28;7.00;97.00
796;DHT22;381;48.770;9.188;2024-03-23T23:21:30;7.00;97.20
796;DHT22;381;48.770;9.188;2024-03-23T23:26:34;7.00;97.40
796;DHT22;381;48.770;9.188;2024-03-23T23:31:37;7.00;97.30
796;DHT22;381;48.770;9.188;2024-03-23T23:36:39;7.00;97.20
796;DHT22;381;48.770;9.188;2024-03-23T23:41:43;7.00;97.20
796;DHT22;381;48.770;9.188;2024-03-23T23:46:45;7.00;97.20
796;DHT22;381;48.770;9.188;2024-03-23T23:51:47;7.00;97.10
796;DHT22;381;48.770;9.188;2024-03-23T23:56:51;7.10;96.80
